Sand Springs, MT (59077)

1:10 PM MST on February 19, 2017 (GMT -0700)
Union Creek, Montana | | Change Station

Elev 2910 ft 47.26 °N, 107.56 °W | Updated 12 minutes ago

Mostly Cloudy
Mostly Cloudy
56.2 °F
Feels Like 56.2 °F
N
9.0
Wind Variable Wind from WNW
Gusts 14.0 mph

Today
High -- | Low -- °F
--% Chance of Precip.
Yesterday
High -- | Low -- °F
Precip. -- in
Pressure 29.50 in
Visibility 3.0 miles
Clouds Overcast 300 ft
Dew Point 37 °F
Humidity 49%
Rainfall 0.00 in
Snow Depth Not available.
7:07 AM 5:40 PM
Last Quarter, 40% visible
METAR KGGW 191953Z AUTO 10009KT 3SM BR OVC003 02/00 A2944 RMK AO2 SLP990 T00170000 $
Pressure 29.50 in
Visibility 3.0 miles
Clouds Overcast 300 ft
Dew Point 37 °F
Humidity 49%
Rainfall 0.00 in
Snow Depth Not available.
7:07 AM 5:40 PM
Last Quarter, 40% visible
METAR KGGW 191953Z AUTO 10009KT 3SM BR OVC003 02/00 A2944 RMK AO2 SLP990 T00170000 $

Get Your Daily Forecast Email!

Thanks for signing up!

Be on the lookout for a verification email in your inbox.

You'll start receiving the daily forecast at 8 AM.

×

10-Day Weather Forecast

Almanac

Astronomy

Feb. 19, 2017 Rise Set
Actual Time
Civil Twilight
Nautical Twilight
Astronomical Twilight
Moon
Length of Visible Light
Length of Day
Tomorrow will be .
, % of the Moon is Illuminated

Today's Extremes

State Highs State Lows

Community

WunderPhotos

Upload Photos

1,962,540 photos uploaded!

WunderBlog® & News

Nearby

Air Quality

  Air Quality AQ Index Pollutant
Not available.

Snow Depth

Station Depth Elevation

Earthquake Activity

City Distance Mag. Time & Date
Minimum magnitude displayed is 2.5.

Coastal Water Temperatures

Place Temperature

Stations

Nearby Weather Stations

Station Location Temp. Windchill Dew Point Humidity Wind Precip. Elev Updated Type
                   

Watches & Warnings

There are currently no watches in effect.